Carnival Magic — 3ETA8 — position and weather

sailwx.info

Track history (hours):
 
Tides and Currents Weather Stations Pressure Air Temp Water Temp Dewpoint Dewpoint Depression Visibility Wind Speed Wind Dir Waves Ship Positions

Carnival Magic

Last reported at 2015-Mar-26 03:00 UTC. Time now 2015-Mar-27 15:37 UTC.
Position N 18°42' W 079°00'.

Length 305 m; draft 8.3 m.

Type: Ship. MMSI: 370491000.

Wind from 070 at 5 knots

Waves 0.5 meters (2 feet), 2 second period

Barometer 1015.0 mb
Air temperature 26.0 ° C
Visibility: greater than 10.8 NM
Dewpoint 20.0 ° C
Water temperature 28.0 ° C

Date/timePositionNaut miles runAvg speedWind from/ knotsBaromVisibWave heightAir tempDewpointWater temp
2015-Mar-26 03:00N 18°42' W 079°00'286 8.2 070 / 51015.010.8 0.526.020.028.0
2015-Mar-24 16:00N 20°54' W 083°30'24518.9 180 / 51013.010.8 0.526.019.028.0
2015-Mar-24 03:00N 22°48' W 087°24'42419.3 010 / 91013.010.8 25.021.026.0
2015-Mar-23 05:00N 28°00' W 092°42'13518.2 280 / 51014.010.8 19.014.022.0
2015-Mar-22 21:33N 29°20' W 094°47'1 0.4
2015-Mar-22 18:17N 29°19' W 094°48'0 0.0
2015-Mar-22 12:15N 29°19' W 094°48'0 0.4
2015-Mar-22 11:29N 29°19' W 094°47'14315.1
2015-Mar-22 02:00N 27°54' W 092°36'5217.3 220 / 91013.010.8 0.524.018.024.0
2015-Mar-21 23:00N 27°24' W 091°48'64817.3 180 / 151012.010.8 0.525.018.027.0
2015-Mar-20 09:31N 25°11' W 080°01'3917.8
2015-Mar-20 07:20N 25°42' W 079°34'6015.9
2015-Mar-20 03:33N 26°05' W 078°33'1818.5
2015-Mar-20 02:34N 26°00' W 078°13'1918.9
2015-Mar-20 01:33N 25°56' W 077°53'60 2.1
2015-Mar-18 21:04N 26°31' W 078°46'24 2.1
2015-Mar-18 09:33N 26°17' W 079°09'2019.7
2015-Mar-18 08:33N 26°03' W 079°24'2222.0
2015-Mar-18 07:33N 25°44' W 079°35'9321.0
2015-Mar-18 03:07N 24°30' W 080°39'1220.8
2015-Mar-18 02:33N 24°28' W 080°51'4120.6
2015-Mar-18 00:33N 24°22' W 081°36'1313.1
2015-Mar-17 23:33N 24°29' W 081°48'5 4.7
2015-Mar-17 22:31N 24°34' W 081°49'0 0.0
2015-Mar-17 21:33N 24°34' W 081°49'0 0.0
2015-Mar-17 20:33N 24°34' W 081°49'0 0.0
2015-Mar-17 19:32N 24°34' W 081°49'0 0.0
2015-Mar-17 18:32N 24°34' W 081°49'0 0.0
2015-Mar-17 17:31N 24°34' W 081°49'0 0.0
2015-Mar-17 16:33N 24°34' W 081°49'0 0.0
2015-Mar-17 15:33N 24°34' W 081°49'38 8.6
2015-Mar-17 11:07N 24°18' W 082°27'2816.4
2015-Mar-17 09:23N 24°14' W 082°57'1716.0
2015-Mar-17 08:18N 24°17' W 083°16'1619.3
2015-Mar-17 07:28N 24°23' W 083°33'2219.5
2015-Mar-17 06:20N 24°31' W 083°55'12119.8
2015-Mar-17 00:13N 25°19' W 085°58'1420.1
2015-Mar-16 23:32N 25°25' W 086°12'4721.0
2015-Mar-16 21:19N 25°43' W 086°59'  
Track history (hours):
 
Tides and Currents Weather Stations Pressure Air Temp Water Temp Dewpoint Dewpoint Depression Visibility Wind Speed Wind Dir Waves Ship Positions

Carnival Magic

Last reported at 2015-Mar-26 03:00 UTC. Time now 2015-Mar-27 15:37 UTC.
Position N 18°42' W 079°00'.

Length 305 m; draft 8.3 m.

Type: Ship. MMSI: 370491000.

Wind from 070 at 5 knots

Waves 0.5 meters (2 feet), 2 second period

Barometer 1015.0 mb
Air temperature 26.0 ° C
Visibility: greater than 10.8 NM
Dewpoint 20.0 ° C
Water temperature 28.0 ° C

Date/timePositionNaut miles runAvg speedWind from/ knotsBaromVisibWave heightAir tempDewpointWater temp
2015-Mar-26 03:00N 18°42' W 079°00'286 8.2 070 / 51015.010.8 0.526.020.028.0
2015-Mar-24 16:00N 20°54' W 083°30'24518.9 180 / 51013.010.8 0.526.019.028.0
2015-Mar-24 03:00N 22°48' W 087°24'42419.3 010 / 91013.010.8 25.021.026.0
2015-Mar-23 05:00N 28°00' W 092°42'13518.2 280 / 51014.010.8 19.014.022.0
2015-Mar-22 21:33N 29°20' W 094°47'1 0.4
2015-Mar-22 18:17N 29°19' W 094°48'0 0.0
2015-Mar-22 12:15N 29°19' W 094°48'0 0.4
2015-Mar-22 11:29N 29°19' W 094°47'14315.1
2015-Mar-22 02:00N 27°54' W 092°36'5217.3 220 / 91013.010.8 0.524.018.024.0
2015-Mar-21 23:00N 27°24' W 091°48'64817.3 180 / 151012.010.8 0.525.018.027.0
2015-Mar-20 09:31N 25°11' W 080°01'3917.8
2015-Mar-20 07:20N 25°42' W 079°34'6015.9
2015-Mar-20 03:33N 26°05' W 078°33'1818.5
2015-Mar-20 02:34N 26°00' W 078°13'1918.9
2015-Mar-20 01:33N 25°56' W 077°53'60 2.1
2015-Mar-18 21:04N 26°31' W 078°46'24 2.1
2015-Mar-18 09:33N 26°17' W 079°09'2019.7
2015-Mar-18 08:33N 26°03' W 079°24'2222.0
2015-Mar-18 07:33N 25°44' W 079°35'9321.0
2015-Mar-18 03:07N 24°30' W 080°39'1220.8
2015-Mar-18 02:33N 24°28' W 080°51'4120.6
2015-Mar-18 00:33N 24°22' W 081°36'1313.1
2015-Mar-17 23:33N 24°29' W 081°48'5 4.7
2015-Mar-17 22:31N 24°34' W 081°49'0 0.0
2015-Mar-17 21:33N 24°34' W 081°49'0 0.0
2015-Mar-17 20:33N 24°34' W 081°49'0 0.0
2015-Mar-17 19:32N 24°34' W 081°49'0 0.0
2015-Mar-17 18:32N 24°34' W 081°49'0 0.0
2015-Mar-17 17:31N 24°34' W 081°49'0 0.0
2015-Mar-17 16:33N 24°34' W 081°49'0 0.0
2015-Mar-17 15:33N 24°34' W 081°49'38 8.6
2015-Mar-17 11:07N 24°18' W 082°27'2816.4
2015-Mar-17 09:23N 24°14' W 082°57'1716.0
2015-Mar-17 08:18N 24°17' W 083°16'1619.3
2015-Mar-17 07:28N 24°23' W 083°33'2219.5
2015-Mar-17 06:20N 24°31' W 083°55'12119.8
2015-Mar-17 00:13N 25°19' W 085°58'1420.1
2015-Mar-16 23:32N 25°25' W 086°12'4721.0
2015-Mar-16 21:19N 25°43' W 086°59'  

Dump ship's entire track history